Time;durP1;ratioP1;P1;durP2;ratioP2;P2;SDS_P1;SDS_P2;PMS_P1;PMS_P2;Temp;Humidity;BMP_temperature;BMP_pressure;BME280_temperature;BME280_humidity;BME280_pressure;Samples;Min_cycle;Max_cycle;Signal;HPM_P1;HPM_P2
2021/11/26 00:01:10;;;;;;;;;;;;;;;11.88;54.86;99697.00;5004900;27;97896;-66
2021/11/26 00:03:36;;;;;;;;;;;;;;;11.88;54.70;99697.00;5004271;27;121883;-58
2021/11/26 00:06:02;;;;;;;;;;;;;;;11.88;54.87;99691.59;5004664;27;97900;-58
2021/11/26 00:08:28;;;;;;;;;;;;;;;11.89;54.84;99690.50;5004429;27;108874;-58
2021/11/26 00:10:54;;;;;;;;;;;;;;;11.88;54.84;99692.38;5004823;27;97797;-58
2021/11/26 00:13:26;;;;;;;;;;;;;;;11.88;54.88;99687.00;5004519;27;98388;-58
2021/11/26 00:15:57;;;;;;;;;;;;;;;11.88;54.91;99684.28;5004344;27;98332;-58
2021/11/26 00:18:23;;;;;;;;;;;;;;;11.90;54.90;99689.38;5002871;27;98148;-65
2021/11/26 00:20:49;;;;;;;;;;;;;;;11.88;54.68;99689.69;5003589;27;97802;-66
2021/11/26 00:23:15;;;;;;;;;;;;;;;11.89;54.93;99687.78;5003825;27;97745;-59
2021/11/26 00:25:41;;;;;;;;;;;;;;;11.89;55.08;99687.78;5003241;27;98518;-66
2021/11/26 00:28:07;;;;;;;;;;;;;;;11.88;54.89;99687.00;5004496;27;97805;-66
2021/11/26 00:30:33;;;;;;;;;;;;;;;11.88;54.61;99681.59;5004623;27;97646;-58
2021/11/26 00:32:59;;;;;;;;;;;;;;;11.88;54.87;99683.50;5002865;27;98194;-58
2021/11/26 00:35:25;;;;;;;;;;;;;;;11.88;54.76;99675.38;5004164;27;98548;-66
2021/11/26 00:37:51;;;;;;;;;;;;;;;11.87;54.92;99671.88;5003853;27;127366;-66
2021/11/26 00:40:17;;;;;;;;;;;;;;;11.88;54.86;99678.88;5003607;27;110123;-66
2021/11/26 00:42:43;;;;;;;;;;;;;;;11.87;54.99;99677.28;5002085;27;128560;-58
2021/11/26 00:45:10;;;;;;;;;;;;;;;11.87;54.97;99669.19;5004231;27;98264;-58
2021/11/26 00:47:36;;;;;;;;;;;;;;;11.87;54.74;99668.38;5003256;27;98418;-67
2021/11/26 00:50:03;;;;;;;;;;;;;;;11.86;55.03;99661.38;5005714;27;97684;-66
2021/11/26 00:52:29;;;;;;;;;;;;;;;11.86;55.06;99664.88;5003621;27;98684;-59
2021/11/26 00:54:55;;;;;;;;;;;;;;;11.86;54.71;99661.38;5002767;27;127760;-57
2021/11/26 00:57:21;;;;;;;;;;;;;;;11.85;54.87;99655.16;5003775;27;98473;-58
2021/11/26 00:59:47;;;;;;;;;;;;;;;11.86;54.94;99645.16;5002490;27;117978;-58
2021/11/26 01:02:14;;;;;;;;;;;;;;;11.85;55.11;99643.56;5003293;27;128087;-58
2021/11/26 01:04:40;;;;;;;;;;;;;;;11.85;54.95;99638.97;5002132;27;98922;-66
2021/11/26 01:07:06;;;;;;;;;;;;;;;11.85;54.96;99640.88;5003004;27;116965;-58
2021/11/26 01:09:32;;;;;;;;;;;;;;;11.85;54.91;99644.38;5003634;27;97885;-58
2021/11/26 01:11:58;;;;;;;;;;;;;;;11.85;55.04;99632.78;5002818;27;99909;-59
2021/11/26 01:14:24;;;;;;;;;;;;;;;11.85;55.11;99636.25;4985635;27;98631;-58
2021/11/26 01:16:51;;;;;;;;;;;;;;;11.86;55.25;99639.75;4964462;28;116807;-67
2021/11/26 01:19:16;;;;;;;;;;;;;;;11.85;54.84;99627.38;4977855;27;99154;-66
2021/11/26 01:21:42;;;;;;;;;;;;;;;11.84;54.97;99623.88;5003259;27;129849;-67
2021/11/26 01:24:08;;;;;;;;;;;;;;;11.85;55.08;99617.38;5003171;27;128273;-66
2021/11/26 01:26:34;;;;;;;;;;;;;;;11.86;55.08;99615.47;5001325;27;128308;-59
2021/11/26 01:29:00;;;;;;;;;;;;;;;11.85;55.18;99601.16;5004196;27;97868;-58
2021/11/26 01:31:26;;;;;;;;;;;;;;;11.85;54.86;99608.47;4984382;27;126768;-58
2021/11/26 01:33:54;;;;;;;;;;;;;;;11.85;55.20;99606.56;5001906;27;128019;-66
2021/11/26 01:36:20;;;;;;;;;;;;;;;11.85;55.03;99606.56;5002975;27;97824;-66
2021/11/26 01:38:46;;;;;;;;;;;;;;;11.86;55.02;99601.97;5004248;27;103362;-67
2021/11/26 01:41:12;;;;;;;;;;;;;;;11.85;54.99;99603.06;5002957;27;121275;-58
2021/11/26 01:43:38;;;;;;;;;;;;;;;11.85;55.12;99593.06;5002324;27;116503;-58
2021/11/26 01:46:08;;;;;;;;;;;;;;;11.85;55.16;99598.47;4983392;27;98244;-67
2021/11/26 01:48:34;;;;;;;;;;;;;;;11.86;54.97;99599.25;4985184;27;97980;-58
2021/11/26 01:51:00;;;;;;;;;;;;;;;11.84;54.87;99602.25;5002186;27;117984;-58
2021/11/26 01:53:26;;;;;;;;;;;;;;;11.85;54.99;99603.88;5001706;27;128235;-67
2021/11/26 01:55:53;;;;;;;;;;;;;;;11.85;54.91;99589.56;5001590;27;126547;-58
2021/11/26 01:58:19;;;;;;;;;;;;;;;11.85;55.10;99595.75;5003236;27;99476;-67
2021/11/26 02:00:46;;;;;;;;;;;;;;;11.85;55.00;99590.34;5002705;27;113565;-67
2021/11/26 02:03:11;;;;;;;;;;;;;;;11.85;54.91;99586.88;5002670;27;104544;-65
2021/11/26 02:05:37;;;;;;;;;;;;;;;11.85;55.01;99581.47;5002131;27;125211;-58
2021/11/26 02:08:03;;;;;;;;;;;;;;;11.85;55.20;99579.56;5002363;27;115720;-58
2021/11/26 02:10:29;;;;;;;;;;;;;;;11.85;54.96;99579.56;5002709;27;110351;-58
2021/11/26 02:12:55;;;;;;;;;;;;;;;11.86;55.11;99566.84;5003551;27;103418;-59
2021/11/26 02:15:23;;;;;;;;;;;;;;;11.85;55.07;99563.34;5003763;27;97860;-67
2021/11/26 02:17:50;;;;;;;;;;;;;;;11.85;54.78;99574.16;5003556;27;97969;-58
2021/11/26 02:20:21;;;;;;;;;;;;;;;11.85;54.97;99565.25;5001348;27;97986;-58
2021/11/26 02:22:47;;;;;;;;;;;;;;;11.85;55.07;99567.97;5002868;27;98263;-65
2021/11/26 02:25:13;;;;;;;;;;;;;;;11.85;55.02;99562.56;5004038;27;97894;-66
2021/11/26 02:27:39;;;;;;;;;;;;;;;11.85;54.93;99557.16;5002465;27;97895;-58
2021/11/26 02:30:16;;;;;;;;;;;;;;;11.85;54.97;99557.16;5003400;27;98465;-57
2021/11/26 02:32:44;;;;;;;;;;;;;;;11.84;55.12;99556.38;4981934;27;98661;-58
2021/11/26 02:35:10;;;;;;;;;;;;;;;11.84;55.01;99550.97;5001373;27;98164;-67
2021/11/26 02:37:39;;;;;;;;;;;;;;;11.84;54.81;99545.56;5002049;27;98384;-58
2021/11/26 02:40:06;;;;;;;;;;;;;;;11.84;55.11;99539.38;4985386;27;98394;-58
2021/11/26 02:42:32;;;;;;;;;;;;;;;11.84;55.01;99545.56;5000377;27;121437;-59
2021/11/26 02:44:58;;;;;;;;;;;;;;;11.84;55.01;99533.97;5002500;27;113847;-67
2021/11/26 02:47:24;;;;;;;;;;;;;;;11.83;54.94;99527.75;5000537;27;114660;-57
2021/11/26 02:49:50;;;;;;;;;;;;;;;11.84;55.01;99525.88;5001749;27;128172;-67
2021/11/26 02:52:16;;;;;;;;;;;;;;;11.84;54.96;99529.38;5002479;27;98057;-67
2021/11/26 02:54:42;;;;;;;;;;;;;;;11.84;54.91;99518.56;5001314;27;127958;-65
2021/11/26 02:57:07;;;;;;;;;;;;;;;11.84;54.93;99521.25;5001306;27;117239;-58
2021/11/26 02:59:33;;;;;;;;;;;;;;;11.84;54.92;99517.75;5001692;27;128889;-67
2021/11/26 03:02:01;;;;;;;;;;;;;;;11.84;54.83;99513.16;5000538;27;128437;-58
2021/11/26 03:04:27;;;;;;;;;;;;;;;11.85;55.11;99513.97;5002707;27;97710;-66
2021/11/26 03:07:00;;;;;;;;;;;;;;;11.84;54.91;99515.88;5001619;27;106244;-58
2021/11/26 03:09:26;;;;;;;;;;;;;;;11.84;55.00;99515.88;5001908;27;98855;-67
2021/11/26 03:11:52;;;;;;;;;;;;;;;11.85;55.08;99513.97;5001349;27;127989;-67
2021/11/26 03:14:18;;;;;;;;;;;;;;;11.85;55.01;99512.06;5001086;27;126550;-58
2021/11/26 03:16:44;;;;;;;;;;;;;;;11.85;54.73;99511.25;5000473;27;118294;-58
2021/11/26 03:19:10;;;;;;;;;;;;;;;11.85;54.96;99500.47;5000907;27;127808;-66
2021/11/26 03:21:36;;;;;;;;;;;;;;;11.85;54.88;99503.94;5001479;27;126703;-66
2021/11/26 03:24:02;;;;;;;;;;;;;;;11.85;55.15;99498.56;5002522;27;98142;-67
2021/11/26 03:26:28;;;;;;;;;;;;;;;11.85;55.10;99493.16;5000812;27;103683;-65
2021/11/26 03:28:53;;;;;;;;;;;;;;;11.85;55.08;99482.34;5004924;27;129085;-65
2021/11/26 03:31:19;;;;;;;;;;;;;;;11.85;54.81;99476.16;5005053;27;127553;-66
2021/11/26 03:33:45;;;;;;;;;;;;;;;11.86;55.11;99483.94;4985101;27;127575;-58
2021/11/26 03:36:11;;;;;;;;;;;;;;;11.86;54.85;99477.75;4998334;27;99182;-66
2021/11/26 03:38:37;;;;;;;;;;;;;;;11.86;55.16;99477.75;5004955;27;121565;-66
2021/11/26 03:41:03;;;;;;;;;;;;;;;11.86;54.92;99472.34;5003858;27;128845;-67
2021/11/26 03:43:29;;;;;;;;;;;;;;;11.85;55.04;99471.56;5004069;27;127122;-58
2021/11/26 03:45:55;;;;;;;;;;;;;;;11.87;54.96;99471.25;5004837;27;97729;-58
2021/11/26 03:48:21;;;;;;;;;;;;;;;11.86;55.08;99475.84;5004038;27;127243;-58
2021/11/26 03:50:47;;;;;;;;;;;;;;;11.86;54.98;99478.53;5003650;27;128845;-66
2021/11/26 03:53:13;;;;;;;;;;;;;;;11.86;54.91;99477.75;5003859;27;127802;-67
2021/11/26 03:55:38;;;;;;;;;;;;;;;11.86;54.92;99478.53;4985169;27;118300;-58
2021/11/26 03:58:04;;;;;;;;;;;;;;;11.85;54.91;99471.56;5003811;27;128984;-58
2021/11/26 04:00:30;;;;;;;;;;;;;;;11.86;55.17;99470.44;5005284;27;98702;-65
2021/11/26 04:02:56;;;;;;;;;;;;;;;11.86;55.06;99473.16;5005459;27;98438;-66
2021/11/26 04:05:22;;;;;;;;;;;;;;;11.87;55.14;99465.84;4986878;27;98081;-58
2021/11/26 04:07:48;;;;;;;;;;;;;;;11.86;54.93;99472.34;5004028;27;99575;-58
2021/11/26 04:10:15;;;;;;;;;;;;;;;11.86;55.27;99462.34;5005367;27;98537;-66
2021/11/26 04:12:41;;;;;;;;;;;;;;;11.88;54.98;99467.47;5003956;27;97652;-58
2021/11/26 04:15:08;;;;;;;;;;;;;;;11.86;54.78;99459.63;5005126;27;97690;-58
2021/11/26 04:17:34;;;;;;;;;;;;;;;11.87;55.08;99461.25;5005378;27;98471;-58
2021/11/26 04:20:00;;;;;;;;;;;;;;;11.87;55.03;99460.44;5004435;27;98242;-66
2021/11/26 04:22:26;;;;;;;;;;;;;;;11.88;55.02;99456.66;5003503;27;98101;-58
2021/11/26 04:24:52;;;;;;;;;;;;;;;11.87;54.83;99453.16;5004905;27;117514;-58
2021/11/26 04:27:18;;;;;;;;;;;;;;;11.87;55.07;99439.66;4984128;27;128871;-58
2021/11/26 04:29:44;;;;;;;;;;;;;;;11.88;55.19;99443.16;5003648;27;128255;-67
2021/11/26 04:32:10;;;;;;;;;;;;;;;11.88;55.14;99433.16;5003883;27;98292;-67
2021/11/26 04:34:36;;;;;;;;;;;;;;;11.88;54.93;99435.84;5004729;27;98061;-66
2021/11/26 04:37:02;;;;;;;;;;;;;;;11.88;55.02;99433.16;5001817;27;98115;-58
2021/11/26 04:39:28;;;;;;;;;;;;;;;11.88;54.97;99437.75;5004146;27;112820;-58
2021/11/26 04:41:54;;;;;;;;;;;;;;;11.87;54.95;99436.13;5003444;27;98006;-58
2021/11/26 04:44:20;;;;;;;;;;;;;;;11.87;54.89;99434.25;5007959;27;118191;-58
2021/11/26 04:46:46;;;;;;;;;;;;;;;11.89;54.98;99437.44;5002816;27;118377;-58
2021/11/26 04:49:11;;;;;;;;;;;;;;;11.89;54.90;99437.44;5003734;27;116524;-66
2021/11/26 04:51:37;;;;;;;;;;;;;;;11.89;55.07;99440.16;5003388;27;98086;-66
2021/11/26 04:54:04;;;;;;;;;;;;;;;11.90;54.97;99430.13;5004334;27;98448;-58
2021/11/26 04:56:30;;;;;;;;;;;;;;;11.90;55.08;99433.63;5003061;27;98161;-66
2021/11/26 04:58:56;;;;;;;;;;;;;;;11.90;54.99;99428.25;5004181;27;98976;-65
2021/11/26 05:01:22;;;;;;;;;;;;;;;11.90;55.12;99428.25;4965887;28;97726;-58
2021/11/26 05:03:48;;;;;;;;;;;;;;;11.91;54.94;99434.47;4979012;27;116423;-58
2021/11/26 05:06:14;;;;;;;;;;;;;;;11.90;54.98;99430.94;5002977;27;129635;-58
2021/11/26 05:08:39;;;;;;;;;;;;;;;11.90;55.36;99428.25;5001940;27;119323;-58
2021/11/26 05:11:05;;;;;;;;;;;;;;;11.90;55.06;99422.84;5003548;27;126832;-66
2021/11/26 05:13:33;;;;;;;;;;;;;;;11.90;55.06;99422.03;4984889;27;119121;-58
2021/11/26 05:16:00;;;;;;;;;;;;;;;11.91;55.08;99429.06;4985490;27;98903;-66
2021/11/26 05:18:26;;;;;;;;;;;;;;;11.91;54.83;99429.84;5004163;27;98335;-58
2021/11/26 05:20:53;;;;;;;;;;;;;;;11.90;54.90;99430.94;5003597;27;97863;-58
2021/11/26 05:23:19;;;;;;;;;;;;;;;11.90;54.97;99424.75;5003420;27;98859;-58
2021/11/26 05:25:46;;;;;;;;;;;;;;;11.90;54.95;99412.03;5003503;27;117718;-66
2021/11/26 05:28:12;;;;;;;;;;;;;;;11.90;54.98;99406.63;5003434;27;98011;-58
2021/11/26 05:30:38;;;;;;;;;;;;;;;11.90;54.79;99390.44;4984344;27;98085;-66
2021/11/26 05:33:04;;;;;;;;;;;;;;;11.91;55.03;99393.97;5003392;27;98631;-67
2021/11/26 05:35:31;;;;;;;;;;;;;;;11.91;55.15;99385.84;5002873;27;130555;-57
2021/11/26 05:37:57;;;;;;;;;;;;;;;11.91;54.83;99385.84;5002770;27;98694;-67
2021/11/26 05:40:23;;;;;;;;;;;;;;;11.90;55.13;99390.44;5005196;27;100850;-67
2021/11/26 05:42:49;;;;;;;;;;;;;;;11.91;54.98;99402.06;5002675;27;113032;-66
2021/11/26 05:45:15;;;;;;;;;;;;;;;11.91;54.83;99396.66;4985042;27;98260;-58
2021/11/26 05:47:41;;;;;;;;;;;;;;;11.90;55.08;99406.63;5001607;27;112418;-58
2021/11/26 05:50:09;;;;;;;;;;;;;;;11.91;55.14;99397.44;5001725;27;126774;-58
2021/11/26 05:52:35;;;;;;;;;;;;;;;11.92;54.95;99400.94;5003557;27;98181;-58
2021/11/26 05:55:01;;;;;;;;;;;;;;;11.90;55.13;99390.44;5002335;27;98540;-58
2021/11/26 05:57:27;;;;;;;;;;;;;;;11.91;54.71;99386.66;5001596;27;98572;-58
2021/11/26 05:59:53;;;;;;;;;;;;;;;11.91;54.94;99380.47;5000810;27;127706;-58
2021/11/26 06:02:19;;;;;;;;;;;;;;;11.91;54.91;99383.16;4998599;27;118664;-58
2021/11/26 06:04:45;;;;;;;;;;;;;;;11.91;54.98;99377.75;5002383;27;99916;-58
2021/11/26 06:07:11;;;;;;;;;;;;;;;11.90;55.03;99381.53;5000439;27;98845;-58
2021/11/26 06:09:38;;;;;;;;;;;;;;;11.90;54.99;99379.63;5000278;27;128469;-58
2021/11/26 06:12:06;;;;;;;;;;;;;;;11.90;54.97;99385.03;5001396;27;97756;-59
2021/11/26 06:14:31;;;;;;;;;;;;;;;11.90;54.95;99379.63;5000585;27;99296;-58
2021/11/26 06:16:57;;;;;;;;;;;;;;;11.90;54.82;99368.03;5001072;27;128053;-58
2021/11/26 06:19:23;;;;;;;;;;;;;;;11.89;54.90;99364.53;5000595;27;128247;-59
2021/11/26 06:21:49;;;;;;;;;;;;;;;11.90;54.80;99365.34;5001160;27;97800;-58
2021/11/26 06:24:15;;;;;;;;;;;;;;;11.90;54.96;99366.13;5001179;27;102661;-58
2021/11/26 06:26:41;;;;;;;;;;;;;;;11.91;54.86;99366.97;5000388;27;128041;-58
2021/11/26 06:29:07;;;;;;;;;;;;;;;11.91;54.94;99369.66;5001465;27;100617;-59
2021/11/26 06:31:33;;;;;;;;;;;;;;;11.89;54.90;99364.53;5001665;27;99185;-57
2021/11/26 06:33:59;;;;;;;;;;;;;;;11.90;54.91;99358.03;4981598;27;114114;-58
2021/11/26 06:36:25;;;;;;;;;;;;;;;11.89;55.07;99352.94;5000965;27;98759;-58
2021/11/26 06:38:51;;;;;;;;;;;;;;;11.90;54.79;99346.44;4965937;27;98014;-58
2021/11/26 06:41:17;;;;;;;;;;;;;;;11.90;54.89;99351.84;4983398;27;97887;-58
2021/11/26 06:43:43;;;;;;;;;;;;;;;11.90;54.96;99341.81;4981731;27;98245;-58
2021/11/26 06:46:09;;;;;;;;;;;;;;;11.90;54.85;99341.03;4982162;27;125020;-58
2021/11/26 06:48:36;;;;;;;;;;;;;;;11.90;54.83;99341.81;4981320;27;104816;-58
2021/11/26 06:51:01;;;;;;;;;;;;;;;11.90;54.87;99328.31;5001403;27;98048;-58
2021/11/26 06:53:27;;;;;;;;;;;;;;;11.89;54.60;99329.44;4981214;27;131526;-58
2021/11/26 06:55:55;;;;;;;;;;;;;;;11.91;55.08;99331.84;5001482;27;128240;-58
2021/11/26 06:58:20;;;;;;;;;;;;;;;11.89;54.81;99317.84;4980379;27;98084;-58
2021/11/26 07:00:46;;;;;;;;;;;;;;;11.89;54.86;99324.03;4998841;27;117040;-58
2021/11/26 07:03:12;;;;;;;;;;;;;;;11.90;54.69;99325.63;5001945;27;126386;-58
2021/11/26 07:05:38;;;;;;;;;;;;;;;11.90;54.83;99322.91;5001784;27;124680;-58
2021/11/26 07:08:05;;;;;;;;;;;;;;;11.90;54.81;99322.91;5001042;27;128537;-66
2021/11/26 07:10:30;;;;;;;;;;;;;;;11.90;54.71;99322.13;5002502;27;109940;-59
2021/11/26 07:12:56;;;;;;;;;;;;;;;11.91;54.54;99326.44;5001618;27;104458;-66
2021/11/26 07:15:22;;;;;;;;;;;;;;;11.90;54.90;99325.63;5001455;27;128359;-58
2021/11/26 07:17:48;;;;;;;;;;;;;;;11.91;54.65;99318.34;5000197;27;118036;-58
2021/11/26 07:20:14;;;;;;;;;;;;;;;11.92;54.85;99320.72;5002977;27;115518;-67
2021/11/26 07:22:42;;;;;;;;;;;;;;;11.93;54.78;99324.22;5001272;27;116702;-58
2021/11/26 07:25:08;;;;;;;;;;;;;;;11.94;54.77;99318.50;5002910;27;99170;-58
2021/11/26 07:27:34;;;;;;;;;;;;;;;11.96;54.76;99307.44;5000929;27;98362;-66
2021/11/26 07:30:00;;;;;;;;;;;;;;;11.96;54.72;99305.53;5002650;27;97789;-58
2021/11/26 07:32:26;;;;;;;;;;;;;;;11.97;54.75;99307.09;5002157;27;98261;-67
2021/11/26 07:34:52;;;;;;;;;;;;;;;11.99;54.75;99304.91;5001071;27;126507;-59
2021/11/26 07:37:18;;;;;;;;;;;;;;;12.01;54.80;99297.28;5000619;27;126206;-59
2021/11/26 07:39:44;;;;;;;;;;;;;;;12.03;54.76;99286.22;5002089;27;98271;-58
2021/11/26 07:42:10;;;;;;;;;;;;;;;12.04;54.69;99280.47;5001203;27;98023;-66
2021/11/26 07:44:36;;;;;;;;;;;;;;;12.09;54.64;99282.28;5003640;27;98217;-59
2021/11/26 07:47:07;;;;;;;;;;;;;;;12.15;54.56;99281.06;5001278;27;97919;-58
2021/11/26 07:49:33;;;;;;;;;;;;;;;12.20;54.47;99286.34;5003328;27;97851;-67
2021/11/26 07:52:00;;;;;;;;;;;;;;;12.23;54.46;99290.34;5002038;27;119954;-66
2021/11/26 07:54:26;;;;;;;;;;;;;;;12.28;54.32;99282.91;5002899;27;98652;-66
2021/11/26 07:56:52;;;;;;;;;;;;;;;12.32;54.39;99285.00;5000951;27;98095;-67
2021/11/26 07:59:18;;;;;;;;;;;;;;;12.39;54.32;99288.06;4984517;27;98307;-66
2021/11/26 08:01:44;;;;;;;;;;;;;;;12.42;54.38;99285.56;5001805;27;115381;-66
2021/11/26 08:04:10;;;;;;;;;;;;;;;12.48;54.30;99284.31;5002053;27;99234;-66
2021/11/26 08:06:36;;;;;;;;;;;;;;;12.53;54.29;99283.38;5003655;27;97837;-67
2021/11/26 08:09:06;;;;;;;;;;;;;;;12.59;54.40;99275.94;5003504;27;97894;-66
2021/11/26 08:11:32;;;;;;;;;;;;;;;12.64;54.32;99268.50;5002131;27;98635;-66
2021/11/26 08:13:58;;;;;;;;;;;;;;;12.69;54.24;99273.78;5000713;27;128358;-66
2021/11/26 08:16:24;;;;;;;;;;;;;;;12.80;54.14;99265.41;5002292;27;98792;-66
2021/11/26 08:18:50;;;;;;;;;;;;;;;12.84;54.04;99266.38;5002344;27;117222;-65
2021/11/26 08:21:16;;;;;;;;;;;;;;;12.88;53.91;99262.72;5001393;27;128174;-66
2021/11/26 08:23:42;;;;;;;;;;;;;;;12.90;54.11;99262.44;5002478;27;127995;-67
2021/11/26 08:26:07;;;;;;;;;;;;;;;12.89;54.19;99264.34;5001447;27;127864;-67
2021/11/26 08:28:33;;;;;;;;;;;;;;;12.92;54.09;99261.00;5002599;27;117484;-66
2021/11/26 08:30:59;;;;;;;;;;;;;;;12.95;54.11;99259.59;5002247;27;129286;-67
2021/11/26 08:33:26;;;;;;;;;;;;;;;12.95;54.15;99259.59;5000672;27;127353;-66
2021/11/26 08:35:52;;;;;;;;;;;;;;;12.97;54.20;99252.78;5001912;27;98019;-66
2021/11/26 08:38:18;;;;;;;;;;;;;;;12.99;54.22;99247.84;5002081;27;97790;-66
2021/11/26 08:40:44;;;;;;;;;;;;;;;13.07;54.00;99257.09;5001779;27;97846;-66
2021/11/26 08:43:10;;;;;;;;;;;;;;;13.13;54.30;99249.66;4983055;27;128015;-66
2021/11/26 08:45:37;;;;;;;;;;;;;;;13.14;54.11;99243.91;5002415;27;98053;-67
2021/11/26 08:48:03;;;;;;;;;;;;;;;13.14;54.39;99243.13;5001158;27;97944;-67
2021/11/26 08:50:29;;;;;;;;;;;;;;;13.15;54.23;99233.88;5002118;27;112040;-66
2021/11/26 08:52:55;;;;;;;;;;;;;;;13.17;54.42;99228.97;5000864;27;127795;-66
2021/11/26 08:55:21;;;;;;;;;;;;;;;13.22;54.41;99223.41;5001048;27;98201;-66
2021/11/26 08:57:55;;;;;;;;;;;;;;;13.30;54.55;99225.38;5001554;27;118551;-67
2021/11/26 09:00:29;;;;;;;;;;;;;;;13.42;54.23;99227.47;5002005;27;98138;-66
2021/11/26 09:02:55;;;;;;;;;;;;;;;13.53;53.84;99222.53;5002011;27;98085;-66
2021/11/26 09:05:21;;;;;;;;;;;;;;;13.65;54.13;99220.00;5001164;27;104593;-67
2021/11/26 09:07:47;;;;;;;;;;;;;;;13.79;53.65;99219.84;5002597;27;98136;-66
2021/11/26 09:10:14;;;;;;;;;;;;;;;13.91;53.69;99214.59;5002149;27;98641;-66
2021/11/26 09:12:40;;;;;;;;;;;;;;;14.03;53.54;99213.94;5001294;27;98520;-67
2021/11/26 09:15:06;;;;;;;;;;;;;;;14.14;53.80;99209.78;5002133;27;98584;-67
2021/11/26 09:17:32;;;;;;;;;;;;;;;14.22;53.43;99207.06;5000966;27;107570;-67
2021/11/26 09:19:58;;;;;;;;;;;;;;;14.39;53.32;99208.16;5001901;27;99463;-66
2021/11/26 09:22:24;;;;;;;;;;;;;;;14.45;53.58;99198.72;5000027;27;127393;-66
2021/11/26 09:24:51;;;;;;;;;;;;;;;14.52;53.76;99195.56;5000345;27;128589;-67
2021/11/26 09:27:17;;;;;;;;;;;;;;;14.63;53.26;99194.09;5001317;27;98030;-66
2021/11/26 09:29:46;;;;;;;;;;;;;;;14.70;53.29;99192.47;5002263;27;98870;-66
2021/11/26 09:32:12;;;;;;;;;;;;;;;14.76;53.36;99192.28;4967246;27;98389;-66
2021/11/26 09:34:38;;;;;;;;;;;;;;;14.76;53.59;99176.00;4982683;27;98378;-67
2021/11/26 09:37:03;;;;;;;;;;;;;;;14.79;53.71;99173.44;4978467;28;117471;-67
2021/11/26 09:39:30;;;;;;;;;;;;;;;14.72;53.82;99170.44;4997323;27;128144;-67
2021/11/26 09:41:56;;;;;;;;;;;;;;;14.59;54.19;99174.16;5002011;27;98650;-67
2021/11/26 09:44:23;;;;;;;;;;;;;;;14.49;54.20;99184.22;5001714;27;101174;-66
2021/11/26 09:46:51;;;;;;;;;;;;;;;14.46;54.60;99186.75;5001442;27;97991;-58
2021/11/26 09:49:17;;;;;;;;;;;;;;;14.46;54.42;99182.16;4981375;27;119691;-58
2021/11/26 09:51:43;;;;;;;;;;;;;;;14.50;54.63;99166.03;4979547;27;128081;-58
2021/11/26 09:54:09;;;;;;;;;;;;;;;14.51;54.67;99159.53;4999037;27;124871;-58
2021/11/26 09:56:35;;;;;;;;;;;;;;;14.46;54.85;99165.06;4999864;27;98948;-67
2021/11/26 09:59:01;;;;;;;;;;;;;;;14.39;54.43;99168.31;5000832;27;98261;-58
2021/11/26 10:01:27;;;;;;;;;;;;;;;14.35;54.70;99161.94;5000740;27;98148;-58
2021/11/26 10:03:54;;;;;;;;;;;;;;;14.29;54.87;99148.88;4999056;27;98349;-58
2021/11/26 10:06:30;;;;;;;;;;;;;;;14.26;54.74;99144.88;4982387;27;97843;-58
2021/11/26 10:09:05;;;;;;;;;;;;;;;14.20;55.03;99141.56;4998932;27;98079;-59
2021/11/26 10:11:37;;;;;;;;;;;;;;;14.20;55.25;99141.56;4998427;27;98968;-58
2021/11/26 10:14:12;;;;;;;;;;;;;;;14.22;54.92;99141.22;4998087;27;98221;-58
2021/11/26 10:16:45;;;;;;;;;;;;;;;14.23;55.05;99134.72;4993274;27;102661;-58
2021/11/26 10:19:11;;;;;;;;;;;;;;;14.26;54.87;99123.19;4997354;27;98670;-58
2021/11/26 10:21:42;;;;;;;;;;;;;;;14.25;54.95;99122.41;4997410;27;103731;-58
2021/11/26 10:24:15;;;;;;;;;;;;;;;14.26;55.21;99125.91;4997649;27;98545;-58
2021/11/26 10:26:53;;;;;;;;;;;;;;;14.23;55.30;99115.75;4992016;27;97882;-58
2021/11/26 10:29:29;;;;;;;;;;;;;;;14.22;55.20;99108.69;4996531;27;98601;-58
2021/11/26 10:32:06;;;;;;;;;;;;;;;14.21;55.03;99099.78;4997040;27;98961;-59
2021/11/26 10:34:32;;;;;;;;;;;;;;;14.20;55.15;99090.06;4995281;27;98685;-58
2021/11/26 10:36:58;;;;;;;;;;;;;;;14.23;54.97;99091.34;4997119;27;97847;-58
2021/11/26 10:39:25;;;;;;;;;;;;;;;14.21;54.76;99088.16;4996706;27;122871;-58
2021/11/26 10:41:54;;;;;;;;;;;;;;;14.20;55.38;99086.56;4998002;27;98895;-58
2021/11/26 10:44:29;;;;;;;;;;;;;;;14.17;54.94;99088.00;4997685;27;97937;-58
2021/11/26 10:47:33;;;;;;;;;;;;;;;14.17;55.13;99085.28;4974504;27;97957;-58
2021/11/26 10:50:05;;;;;;;;;;;;;;;14.15;55.48;99079.41;4993014;27;98855;-58
2021/11/26 10:58:15;;;;;;;;;;;;;;;14.09;55.73;99069.06;4995146;27;98442;-58
2021/11/26 11:00:31;;;;;;;;;;;;;;;14.07;55.64;99061.28;4982564;27;99380;-58
2021/11/26 11:02:58;;;;;;;;;;;;;;;14.05;55.72;99065.41;4996574;27;99180;-58
2021/11/26 11:05:36;;;;;;;;;;;;;;;14.03;55.85;99059.50;4999093;27;97888;-58
2021/11/26 11:08:04;;;;;;;;;;;;;;;14.03;55.62;99059.50;4991695;27;98287;-58
2021/11/26 11:10:36;;;;;;;;;;;;;;;14.01;55.66;99043.59;4996090;27;115703;-58
2021/11/26 11:13:13;;;;;;;;;;;;;;;14.02;55.84;99041.69;4997036;27;98250;-58
2021/11/26 11:15:39;;;;;;;;;;;;;;;14.04;55.53;99032.13;4997505;27;98139;-58
2021/11/26 11:18:05;;;;;;;;;;;;;;;14.05;55.67;99025.56;4997590;27;97851;-59
2021/11/26 11:20:33;;;;;;;;;;;;;;;14.07;55.26;99026.06;4997224;27;118581;-58
2021/11/26 11:22:59;;;;;;;;;;;;;;;14.08;55.68;99014.09;4978158;27;99106;-58
2021/11/26 11:25:27;;;;;;;;;;;;;;;14.10;55.35;99005.63;4996328;27;126410;-58
2021/11/26 11:27:54;;;;;;;;;;;;;;;14.12;55.57;99003.41;4997324;27;98023;-58
2021/11/26 11:30:20;;;;;;;;;;;;;;;14.14;55.33;99001.94;4996525;27;103420;-58
2021/11/26 11:32:46;;;;;;;;;;;;;;;14.16;55.38;98996.22;4995153;27;121367;-58
2021/11/26 11:35:12;;;;;;;;;;;;;;;14.17;55.28;98995.88;4996620;27;100489;-58
2021/11/26 11:37:38;;;;;;;;;;;;;;;14.17;55.78;98990.44;4957022;27;98127;-58
2021/11/26 11:40:08;;;;;;;;;;;;;;;14.18;55.81;98988.53;4995383;27;98561;-58
2021/11/26 11:42:42;;;;;;;;;;;;;;;14.18;55.71;98983.91;4997055;27;99651;-58
2021/11/26 11:45:13;;;;;;;;;;;;;;;14.17;55.63;98979.63;4979768;27;98331;-58
2021/11/26 11:47:53;;;;;;;;;;;;;;;14.17;55.73;98973.41;4994106;27;105243;-66
2021/11/26 11:50:27;;;;;;;;;;;;;;;14.17;55.45;98967.97;4996818;27;98774;-58
2021/11/26 11:52:58;;;;;;;;;;;;;;;14.18;55.82;98959.50;4993860;27;119066;-67
2021/11/26 11:55:35;;;;;;;;;;;;;;;14.17;55.56;98959.84;5001768;27;107020;-66
2021/11/26 11:58:19;;;;;;;;;;;;;;;14.17;55.54;98955.22;5002338;27;98398;-58
2021/11/26 12:00:47;;;;;;;;;;;;;;;14.14;55.47;98950.44;5001648;27;99185;-66
2021/11/26 12:03:15;;;;;;;;;;;;;;;14.13;55.93;98946.16;5000841;27;108176;-66
2021/11/26 12:05:42;;;;;;;;;;;;;;;14.13;55.70;98943.44;5002149;27;104310;-66
2021/11/26 12:08:09;;;;;;;;;;;;;;;14.12;55.98;98943.78;5000812;27;98213;-58
2021/11/26 12:10:49;;;;;;;;;;;;;;;14.11;55.62;98940.28;5002023;27;98853;-66
2021/11/26 12:13:24;;;;;;;;;;;;;;;14.10;56.05;98937.91;5001161;27;98363;-66
2021/11/26 12:15:51;;;;;;;;;;;;;;;14.09;55.85;98934.41;4994165;27;97989;-66
2021/11/26 12:18:17;;;;;;;;;;;;;;;14.09;56.10;98928.19;5000796;27;98388;-58
2021/11/26 12:20:45;;;;;;;;;;;;;;;14.11;56.11;98926.75;5001571;27;111879;-58
2021/11/26 12:23:22;;;;;;;;;;;;;;;14.12;55.78;98922.13;4974526;27;115254;-58
2021/11/26 12:26:43;;;;;;;;;;;;;;;14.13;55.97;98919.06;5001935;27;98177;-58
2021/11/26 12:28:52;;;;;;;;;;;;;;;14.14;55.80;98911.72;4986515;27;98276;-66
2021/11/26 12:31:30;;;;;;;;;;;;;;;14.15;55.63;98905.22;5002698;27;98311;-66
2021/11/26 12:34:07;;;;;;;;;;;;;;;14.15;56.02;98908.72;4999433;27;99957;-67
2021/11/26 12:36:47;;;;;;;;;;;;;;;14.16;55.68;98898.66;5000512;27;116551;-67
2021/11/26 12:39:14;;;;;;;;;;;;;;;14.15;55.77;98897.09;5001044;27;98046;-58
2021/11/26 12:41:44;;;;;;;;;;;;;;;14.13;55.81;98891.97;5001111;27;98719;-58
2021/11/26 12:44:15;;;;;;;;;;;;;;;14.13;55.76;98891.19;5001169;27;99077;-58
2021/11/26 12:46:41;;;;;;;;;;;;;;;14.12;56.24;98892.31;5001639;27;97955;-58
2021/11/26 12:51:53;;;;;;;;;;;;;;;14.09;55.85;98882.13;4979739;27;98095;-58